sensor_id;sensor_type;location;lat;lon;timestamp;temperature;humidity
32612;DHT22;19030;49.478;8.986;2024-02-21T00:01:54;6.60;99.90
32612;DHT22;19030;49.478;8.986;2024-02-21T00:03:55;6.60;99.90
32612;DHT22;19030;49.478;8.986;2024-02-21T00:05:55;6.60;99.90
32612;DHT22;19030;49.478;8.986;2024-02-21T00:07:58;6.60;99.90
32612;DHT22;19030;49.478;8.986;2024-02-21T00:09:59;6.60;99.90
32612;DHT22;19030;49.478;8.986;2024-02-21T00:12:00;6.50;99.90
32612;DHT22;19030;49.478;8.986;2024-02-21T00:14:01;6.50;99.90
32612;DHT22;19030;49.478;8.986;2024-02-21T00:16:02;6.60;99.90
32612;DHT22;19030;49.478;8.986;2024-02-21T00:18:03;6.60;99.90
32612;DHT22;19030;49.478;8.986;2024-02-21T00:20:04;6.60;99.90
32612;DHT22;19030;49.478;8.986;2024-02-21T00:22:05;6.60;99.90
32612;DHT22;19030;49.478;8.986;2024-02-21T00:24:05;6.60;99.90
32612;DHT22;19030;49.478;8.986;2024-02-21T00:26:06;6.70;99.90
32612;DHT22;19030;49.478;8.986;2024-02-21T00:28:08;6.60;99.90
32612;DHT22;19030;49.478;8.986;2024-02-21T00:30:09;6.60;99.90
32612;DHT22;19030;49.478;8.986;2024-02-21T00:32:09;6.60;99.90
32612;DHT22;19030;49.478;8.986;2024-02-21T00:34:10;6.60;99.90
32612;DHT22;19030;49.478;8.986;2024-02-21T00:36:12;6.60;99.90
32612;DHT22;19030;49.478;8.986;2024-02-21T00:38:13;6.60;99.90
32612;DHT22;19030;49.478;8.986;2024-02-21T00:40:13;6.60;99.90
32612;DHT22;19030;49.478;8.986;2024-02-21T00:42:20;6.60;99.90
32612;DHT22;19030;49.478;8.986;2024-02-21T00:44:21;6.60;99.90
32612;DHT22;19030;49.478;8.986;2024-02-21T00:46:22;6.60;99.90
32612;DHT22;19030;49.478;8.986;2024-02-21T00:48:22;6.60;99.90
32612;DHT22;19030;49.478;8.986;2024-02-21T00:50:23;6.60;99.90
32612;DHT22;19030;49.478;8.986;2024-02-21T00:52:23;6.60;99.90
32612;DHT22;19030;49.478;8.986;2024-02-21T00:54:24;6.60;99.90
32612;DHT22;19030;49.478;8.986;2024-02-21T00:56:24;6.70;99.90
32612;DHT22;19030;49.478;8.986;2024-02-21T00:58:25;6.70;99.90
32612;DHT22;19030;49.478;8.986;2024-02-21T01:00:25;6.70;99.90
32612;DHT22;19030;49.478;8.986;2024-02-21T01:02:26;6.80;99.90
32612;DHT22;19030;49.478;8.986;2024-02-21T01:04:27;6.80;99.90
32612;DHT22;19030;49.478;8.986;2024-02-21T01:06:27;6.80;99.90
32612;DHT22;19030;49.478;8.986;2024-02-21T01:08:28;6.80;99.90
32612;DHT22;19030;49.478;8.986;2024-02-21T01:10:28;6.80;99.90
32612;DHT22;19030;49.478;8.986;2024-02-21T01:12:29;6.80;99.90
32612;DHT22;19030;49.478;8.986;2024-02-21T01:14:29;6.80;99.90
32612;DHT22;19030;49.478;8.986;2024-02-21T01:16:30;6.80;99.90
32612;DHT22;19030;49.478;8.986;2024-02-21T01:18:30;6.80;99.90
32612;DHT22;19030;49.478;8.986;2024-02-21T01:20:31;6.80;99.90
32612;DHT22;19030;49.478;8.986;2024-02-21T01:22:32;6.80;99.90
32612;DHT22;19030;49.478;8.986;2024-02-21T01:24:33;6.80;99.90
32612;DHT22;19030;49.478;8.986;2024-02-21T01:26:33;6.80;99.90
32612;DHT22;19030;49.478;8.986;2024-02-21T01:28:35;6.80;99.90
32612;DHT22;19030;49.478;8.986;2024-02-21T01:30:36;6.80;99.90
32612;DHT22;19030;49.478;8.986;2024-02-21T01:32:36;6.80;99.90
32612;DHT22;19030;49.478;8.986;2024-02-21T01:34:37;6.80;99.90
32612;DHT22;19030;49.478;8.986;2024-02-21T01:36:37;6.80;99.90
32612;DHT22;19030;49.478;8.986;2024-02-21T01:38:38;6.80;99.90
32612;DHT22;19030;49.478;8.986;2024-02-21T01:40:38;6.80;99.90
32612;DHT22;19030;49.478;8.986;2024-02-21T01:42:39;6.80;99.90
32612;DHT22;19030;49.478;8.986;2024-02-21T01:44:43;6.80;99.90
32612;DHT22;19030;49.478;8.986;2024-02-21T01:46:43;6.80;99.90
32612;DHT22;19030;49.478;8.986;2024-02-21T01:48:44;6.70;99.90
32612;DHT22;19030;49.478;8.986;2024-02-21T01:50:47;6.70;99.90
32612;DHT22;19030;49.478;8.986;2024-02-21T01:52:49;6.70;99.90
32612;DHT22;19030;49.478;8.986;2024-02-21T01:54:50;6.70;99.90
32612;DHT22;19030;49.478;8.986;2024-02-21T01:56:51;6.70;99.90
32612;DHT22;19030;49.478;8.986;2024-02-21T01:58:52;6.70;99.90
32612;DHT22;19030;49.478;8.986;2024-02-21T02:00:54;6.80;99.90
32612;DHT22;19030;49.478;8.986;2024-02-21T02:02:56;6.70;99.90
32612;DHT22;19030;49.478;8.986;2024-02-21T02:04:58;6.80;99.90
32612;DHT22;19030;49.478;8.986;2024-02-21T02:07:02;6.80;99.90
32612;DHT22;19030;49.478;8.986;2024-02-21T02:09:03;6.80;99.90
32612;DHT22;19030;49.478;8.986;2024-02-21T02:11:04;6.90;99.90
32612;DHT22;19030;49.478;8.986;2024-02-21T02:13:04;6.90;99.90
32612;DHT22;19030;49.478;8.986;2024-02-21T02:15:05;6.90;99.90
32612;DHT22;19030;49.478;8.986;2024-02-21T02:17:06;6.90;99.90
32612;DHT22;19030;49.478;8.986;2024-02-21T02:19:06;7.00;99.90
32612;DHT22;19030;49.478;8.986;2024-02-21T02:21:13;7.00;99.90
32612;DHT22;19030;49.478;8.986;2024-02-21T02:23:28;7.00;99.90
32612;DHT22;19030;49.478;8.986;2024-02-21T02:25:29;7.00;99.90
32612;DHT22;19030;49.478;8.986;2024-02-21T02:27:30;7.10;99.90
32612;DHT22;19030;49.478;8.986;2024-02-21T02:29:32;7.10;99.90
32612;DHT22;19030;49.478;8.986;2024-02-21T02:31:33;7.10;99.90
32612;DHT22;19030;49.478;8.986;2024-02-21T02:33:33;7.10;99.90
32612;DHT22;19030;49.478;8.986;2024-02-21T02:35:34;7.10;99.90
32612;DHT22;19030;49.478;8.986;2024-02-21T02:37:36;7.20;99.90
32612;DHT22;19030;49.478;8.986;2024-02-21T02:39:38;7.20;99.90
32612;DHT22;19030;49.478;8.986;2024-02-21T02:41:39;7.20;99.90
32612;DHT22;19030;49.478;8.986;2024-02-21T02:43:39;7.20;99.90
32612;DHT22;19030;49.478;8.986;2024-02-21T02:45:40;7.20;99.90
32612;DHT22;19030;49.478;8.986;2024-02-21T02:47:41;7.30;99.90
32612;DHT22;19030;49.478;8.986;2024-02-21T02:49:41;7.20;99.90
32612;DHT22;19030;49.478;8.986;2024-02-21T02:51:42;7.30;99.90
32612;DHT22;19030;49.478;8.986;2024-02-21T02:53:43;7.30;99.90
32612;DHT22;19030;49.478;8.986;2024-02-21T02:55:44;7.30;99.90
32612;DHT22;19030;49.478;8.986;2024-02-21T02:57:45;7.20;99.90
32612;DHT22;19030;49.478;8.986;2024-02-21T02:59:49;7.30;99.90
32612;DHT22;19030;49.478;8.986;2024-02-21T03:01:50;7.30;99.90
32612;DHT22;19030;49.478;8.986;2024-02-21T03:03:50;7.20;99.90
32612;DHT22;19030;49.478;8.986;2024-02-21T03:05:51;7.30;99.90
32612;DHT22;19030;49.478;8.986;2024-02-21T03:07:51;7.30;99.90
32612;DHT22;19030;49.478;8.986;2024-02-21T03:09:52;7.30;99.90
32612;DHT22;19030;49.478;8.986;2024-02-21T03:11:53;7.20;99.90
32612;DHT22;19030;49.478;8.986;2024-02-21T03:13:57;7.20;99.90
32612;DHT22;19030;49.478;8.986;2024-02-21T03:15:57;7.10;99.90
32612;DHT22;19030;49.478;8.986;2024-02-21T03:17:59;7.10;99.90
32612;DHT22;19030;49.478;8.986;2024-02-21T03:19:59;7.10;99.90
32612;DHT22;19030;49.478;8.986;2024-02-21T03:22:00;7.10;99.90
32612;DHT22;19030;49.478;8.986;2024-02-21T03:24:00;7.10;99.90
32612;DHT22;19030;49.478;8.986;2024-02-21T03:26:01;7.10;99.90
32612;DHT22;19030;49.478;8.986;2024-02-21T03:28:02;7.20;99.90
32612;DHT22;19030;49.478;8.986;2024-02-21T03:30:02;7.20;99.90
32612;DHT22;19030;49.478;8.986;2024-02-21T03:32:04;7.20;99.90
32612;DHT22;19030;49.478;8.986;2024-02-21T03:34:05;7.20;99.90
32612;DHT22;19030;49.478;8.986;2024-02-21T03:36:06;7.20;99.90
32612;DHT22;19030;49.478;8.986;2024-02-21T03:38:06;7.10;99.90
32612;DHT22;19030;49.478;8.986;2024-02-21T03:40:08;7.10;99.90
32612;DHT22;19030;49.478;8.986;2024-02-21T03:42:09;7.00;99.90
32612;DHT22;19030;49.478;8.986;2024-02-21T03:44:10;7.00;99.90
32612;DHT22;19030;49.478;8.986;2024-02-21T03:46:10;7.00;99.90
32612;DHT22;19030;49.478;8.986;2024-02-21T03:48:11;6.90;99.90
32612;DHT22;19030;49.478;8.986;2024-02-21T03:50:12;6.90;99.90
32612;DHT22;19030;49.478;8.986;2024-02-21T03:52:12;6.90;99.90
32612;DHT22;19030;49.478;8.986;2024-02-21T03:54:13;6.90;99.90
32612;DHT22;19030;49.478;8.986;2024-02-21T03:56:13;6.90;99.90
32612;DHT22;19030;49.478;8.986;2024-02-21T03:58:14;6.80;99.90
32612;DHT22;19030;49.478;8.986;2024-02-21T04:00:15;6.80;99.90
32612;DHT22;19030;49.478;8.986;2024-02-21T04:02:15;6.70;99.90
32612;DHT22;19030;49.478;8.986;2024-02-21T04:04:17;6.60;99.90
32612;DHT22;19030;49.478;8.986;2024-02-21T04:06:18;6.60;99.90
32612;DHT22;19030;49.478;8.986;2024-02-21T04:08:19;6.60;99.90
32612;DHT22;19030;49.478;8.986;2024-02-21T04:10:19;6.60;99.90
32612;DHT22;19030;49.478;8.986;2024-02-21T04:12:20;6.50;99.90
32612;DHT22;19030;49.478;8.986;2024-02-21T04:14:21;6.50;99.90
32612;DHT22;19030;49.478;8.986;2024-02-21T04:16:21;6.50;99.90
32612;DHT22;19030;49.478;8.986;2024-02-21T04:18:22;6.40;99.90
32612;DHT22;19030;49.478;8.986;2024-02-21T04:20:22;6.30;99.90
32612;DHT22;19030;49.478;8.986;2024-02-21T04:22:23;6.30;99.90
32612;DHT22;19030;49.478;8.986;2024-02-21T04:24:24;6.30;99.90
32612;DHT22;19030;49.478;8.986;2024-02-21T04:26:24;6.30;99.90
32612;DHT22;19030;49.478;8.986;2024-02-21T04:28:25;6.30;99.90
32612;DHT22;19030;49.478;8.986;2024-02-21T04:30:25;6.30;99.90
32612;DHT22;19030;49.478;8.986;2024-02-21T04:32:26;6.30;99.90
32612;DHT22;19030;49.478;8.986;2024-02-21T04:34:27;6.40;99.90
32612;DHT22;19030;49.478;8.986;2024-02-21T04:36:28;6.40;99.90
32612;DHT22;19030;49.478;8.986;2024-02-21T04:38:28;6.50;99.90
32612;DHT22;19030;49.478;8.986;2024-02-21T04:40:29;6.50;99.90
32612;DHT22;19030;49.478;8.986;2024-02-21T04:42:29;6.50;99.90
32612;DHT22;19030;49.478;8.986;2024-02-21T04:44:30;6.50;99.90
32612;DHT22;19030;49.478;8.986;2024-02-21T04:46:30;6.50;99.90
32612;DHT22;19030;49.478;8.986;2024-02-21T04:48:31;6.60;99.90
32612;DHT22;19030;49.478;8.986;2024-02-21T04:50:32;6.60;99.90
32612;DHT22;19030;49.478;8.986;2024-02-21T04:52:33;6.60;99.90
32612;DHT22;19030;49.478;8.986;2024-02-21T04:54:34;6.60;99.90
32612;DHT22;19030;49.478;8.986;2024-02-21T04:56:35;6.60;99.90
32612;DHT22;19030;49.478;8.986;2024-02-21T04:58:39;6.60;99.90
32612;DHT22;19030;49.478;8.986;2024-02-21T05:00:40;6.60;99.90
32612;DHT22;19030;49.478;8.986;2024-02-21T05:02:40;6.60;99.90
32612;DHT22;19030;49.478;8.986;2024-02-21T05:04:42;6.60;99.90
32612;DHT22;19030;49.478;8.986;2024-02-21T05:06:43;6.60;99.90
32612;DHT22;19030;49.478;8.986;2024-02-21T05:08:44;6.50;99.90
32612;DHT22;19030;49.478;8.986;2024-02-21T05:10:45;6.50;99.90
32612;DHT22;19030;49.478;8.986;2024-02-21T05:12:45;6.50;99.90
32612;DHT22;19030;49.478;8.986;2024-02-21T05:14:46;6.50;99.90
32612;DHT22;19030;49.478;8.986;2024-02-21T05:16:47;6.50;99.90
32612;DHT22;19030;49.478;8.986;2024-02-21T05:18:48;6.50;99.90
32612;DHT22;19030;49.478;8.986;2024-02-21T05:20:48;6.40;99.90
32612;DHT22;19030;49.478;8.986;2024-02-21T05:22:49;6.40;99.90
32612;DHT22;19030;49.478;8.986;2024-02-21T05:24:49;6.30;99.90
32612;DHT22;19030;49.478;8.986;2024-02-21T05:26:50;6.30;99.90
32612;DHT22;19030;49.478;8.986;2024-02-21T05:28:51;6.20;99.90
32612;DHT22;19030;49.478;8.986;2024-02-21T05:30:51;6.10;99.90
32612;DHT22;19030;49.478;8.986;2024-02-21T05:32:52;6.10;99.90
32612;DHT22;19030;49.478;8.986;2024-02-21T05:34:52;6.00;99.90
32612;DHT22;19030;49.478;8.986;2024-02-21T05:36:53;6.00;99.90
32612;DHT22;19030;49.478;8.986;2024-02-21T05:38:54;5.90;99.90
32612;DHT22;19030;49.478;8.986;2024-02-21T05:40:54;5.90;99.90
32612;DHT22;19030;49.478;8.986;2024-02-21T05:42:55;5.80;99.90
32612;DHT22;19030;49.478;8.986;2024-02-21T05:44:55;5.80;99.90
32612;DHT22;19030;49.478;8.986;2024-02-21T05:46:56;5.80;99.90
32612;DHT22;19030;49.478;8.986;2024-02-21T05:48:56;5.80;99.90
32612;DHT22;19030;49.478;8.986;2024-02-21T05:50:57;5.70;99.90
32612;DHT22;19030;49.478;8.986;2024-02-21T05:52:58;5.70;99.90
32612;DHT22;19030;49.478;8.986;2024-02-21T05:54:58;5.70;99.90
32612;DHT22;19030;49.478;8.986;2024-02-21T05:56:59;5.60;99.90
32612;DHT22;19030;49.478;8.986;2024-02-21T05:58:59;5.60;99.90
32612;DHT22;19030;49.478;8.986;2024-02-21T06:01:00;5.70;99.90
32612;DHT22;19030;49.478;8.986;2024-02-21T06:03:02;5.70;99.90
32612;DHT22;19030;49.478;8.986;2024-02-21T06:05:03;5.70;99.90
32612;DHT22;19030;49.478;8.986;2024-02-21T06:07:05;5.60;99.90
32612;DHT22;19030;49.478;8.986;2024-02-21T06:09:06;5.60;99.90
32612;DHT22;19030;49.478;8.986;2024-02-21T06:11:06;5.50;99.90
32612;DHT22;19030;49.478;8.986;2024-02-21T06:13:07;5.50;99.90
32612;DHT22;19030;49.478;8.986;2024-02-21T06:15:08;5.40;99.90
32612;DHT22;19030;49.478;8.986;2024-02-21T06:17:08;5.40;99.90
32612;DHT22;19030;49.478;8.986;2024-02-21T06:19:09;5.40;99.90
32612;DHT22;19030;49.478;8.986;2024-02-21T06:21:09;5.40;99.90
32612;DHT22;19030;49.478;8.986;2024-02-21T06:23:12;5.40;99.90
32612;DHT22;19030;49.478;8.986;2024-02-21T06:25:12;5.40;99.90
32612;DHT22;19030;49.478;8.986;2024-02-21T06:27:13;5.40;99.90
32612;DHT22;19030;49.478;8.986;2024-02-21T06:29:16;5.40;99.90
32612;DHT22;19030;49.478;8.986;2024-02-21T06:31:17;5.40;99.90
32612;DHT22;19030;49.478;8.986;2024-02-21T06:33:18;5.50;99.90
32612;DHT22;19030;49.478;8.986;2024-02-21T06:35:19;5.40;99.90
32612;DHT22;19030;49.478;8.986;2024-02-21T06:37:20;5.50;99.90
32612;DHT22;19030;49.478;8.986;2024-02-21T06:39:20;5.50;99.90
32612;DHT22;19030;49.478;8.986;2024-02-21T06:41:22;5.50;99.90
32612;DHT22;19030;49.478;8.986;2024-02-21T06:43:22;5.50;99.90
32612;DHT22;19030;49.478;8.986;2024-02-21T06:45:23;5.50;99.90
32612;DHT22;19030;49.478;8.986;2024-02-21T06:47:23;5.60;99.90
32612;DHT22;19030;49.478;8.986;2024-02-21T06:49:24;5.70;99.90
32612;DHT22;19030;49.478;8.986;2024-02-21T06:51:25;5.70;99.90
32612;DHT22;19030;49.478;8.986;2024-02-21T06:53:25;5.70;99.90
32612;DHT22;19030;49.478;8.986;2024-02-21T06:55:26;5.80;99.90
32612;DHT22;19030;49.478;8.986;2024-02-21T06:57:29;5.90;99.90
32612;DHT22;19030;49.478;8.986;2024-02-21T06:59:29;5.90;99.90
32612;DHT22;19030;49.478;8.986;2024-02-21T07:01:30;6.00;99.90
32612;DHT22;19030;49.478;8.986;2024-02-21T07:03:30;6.10;99.90
32612;DHT22;19030;49.478;8.986;2024-02-21T07:05:31;6.10;99.90
32612;DHT22;19030;49.478;8.986;2024-02-21T07:07:32;6.20;99.90
32612;DHT22;19030;49.478;8.986;2024-02-21T07:09:32;6.20;99.90
32612;DHT22;19030;49.478;8.986;2024-02-21T07:11:33;6.30;99.90
32612;DHT22;19030;49.478;8.986;2024-02-21T07:13:33;6.40;99.90
32612;DHT22;19030;49.478;8.986;2024-02-21T07:15:34;6.50;99.90
32612;DHT22;19030;49.478;8.986;2024-02-21T07:17:36;6.50;99.90
32612;DHT22;19030;49.478;8.986;2024-02-21T07:19:37;6.70;99.90
32612;DHT22;19030;49.478;8.986;2024-02-21T07:21:37;6.80;99.90
32612;DHT22;19030;49.478;8.986;2024-02-21T07:23:42;7.00;99.90
32612;DHT22;19030;49.478;8.986;2024-02-21T07:25:43;7.20;99.90
32612;DHT22;19030;49.478;8.986;2024-02-21T07:27:44;7.40;99.90
32612;DHT22;19030;49.478;8.986;2024-02-21T07:29:45;7.40;99.90
32612;DHT22;19030;49.478;8.986;2024-02-21T07:31:48;7.60;99.90
32612;DHT22;19030;49.478;8.986;2024-02-21T07:33:49;7.80;99.90
32612;DHT22;19030;49.478;8.986;2024-02-21T07:35:49;7.90;99.90
32612;DHT22;19030;49.478;8.986;2024-02-21T07:37:50;8.10;99.90
32612;DHT22;19030;49.478;8.986;2024-02-21T07:39:50;8.20;99.90
32612;DHT22;19030;49.478;8.986;2024-02-21T07:41:51;8.30;99.90
32612;DHT22;19030;49.478;8.986;2024-02-21T07:43:51;8.40;99.90
32612;DHT22;19030;49.478;8.986;2024-02-21T07:45:52;8.50;99.90
32612;DHT22;19030;49.478;8.986;2024-02-21T07:47:56;8.70;99.90
32612;DHT22;19030;49.478;8.986;2024-02-21T07:49:56;8.80;99.90
32612;DHT22;19030;49.478;8.986;2024-02-21T07:51:57;9.00;99.90
32612;DHT22;19030;49.478;8.986;2024-02-21T07:53:57;9.10;99.90
32612;DHT22;19030;49.478;8.986;2024-02-21T07:55:58;9.30;99.90
32612;DHT22;19030;49.478;8.986;2024-02-21T07:57:58;9.40;99.90
32612;DHT22;19030;49.478;8.986;2024-02-21T07:59:59;9.60;99.90
32612;DHT22;19030;49.478;8.986;2024-02-21T08:01:59;9.70;99.90
32612;DHT22;19030;49.478;8.986;2024-02-21T08:04:00;9.90;99.90
32612;DHT22;19030;49.478;8.986;2024-02-21T08:06:02;10.10;99.90
32612;DHT22;19030;49.478;8.986;2024-02-21T08:08:04;10.30;99.90
32612;DHT22;19030;49.478;8.986;2024-02-21T08:10:05;10.50;99.90
32612;DHT22;19030;49.478;8.986;2024-02-21T08:12:08;10.60;99.90
32612;DHT22;19030;49.478;8.986;2024-02-21T08:14:08;10.80;99.90
32612;DHT22;19030;49.478;8.986;2024-02-21T08:16:09;10.80;99.90
32612;DHT22;19030;49.478;8.986;2024-02-21T08:18:09;10.90;99.90
32612;DHT22;19030;49.478;8.986;2024-02-21T08:20:10;11.00;99.90
32612;DHT22;19030;49.478;8.986;2024-02-21T08:22:11;11.10;99.90
32612;DHT22;19030;49.478;8.986;2024-02-21T08:24:11;11.20;99.90
32612;DHT22;19030;49.478;8.986;2024-02-21T08:26:12;11.20;99.90
32612;DHT22;19030;49.478;8.986;2024-02-21T08:28:14;11.20;99.90
32612;DHT22;19030;49.478;8.986;2024-02-21T08:30:14;11.20;99.90
32612;DHT22;19030;49.478;8.986;2024-02-21T08:32:15;11.10;99.90
32612;DHT22;19030;49.478;8.986;2024-02-21T08:34:15;11.10;99.90
32612;DHT22;19030;49.478;8.986;2024-02-21T08:36:19;11.10;99.90
32612;DHT22;19030;49.478;8.986;2024-02-21T08:38:20;11.10;99.90
32612;DHT22;19030;49.478;8.986;2024-02-21T08:40:21;11.00;99.90
32612;DHT22;19030;49.478;8.986;2024-02-21T08:42:21;11.00;99.90
32612;DHT22;19030;49.478;8.986;2024-02-21T08:44:23;10.80;99.90
32612;DHT22;19030;49.478;8.986;2024-02-21T08:46:24;10.70;99.90
32612;DHT22;19030;49.478;8.986;2024-02-21T08:48:25;10.60;99.90
32612;DHT22;19030;49.478;8.986;2024-02-21T08:50:26;10.50;99.90
32612;DHT22;19030;49.478;8.986;2024-02-21T08:52:26;10.40;99.90
32612;DHT22;19030;49.478;8.986;2024-02-21T08:54:27;10.30;99.90
32612;DHT22;19030;49.478;8.986;2024-02-21T08:56:28;10.40;99.90
32612;DHT22;19030;49.478;8.986;2024-02-21T08:58:30;10.30;99.90
32612;DHT22;19030;49.478;8.986;2024-02-21T09:00:31;10.30;99.90
32612;DHT22;19030;49.478;8.986;2024-02-21T09:02:31;10.20;99.90
32612;DHT22;19030;49.478;8.986;2024-02-21T09:04:32;10.10;99.90
32612;DHT22;19030;49.478;8.986;2024-02-21T09:06:33;10.10;99.90
32612;DHT22;19030;49.478;8.986;2024-02-21T09:08:36;10.10;99.90
32612;DHT22;19030;49.478;8.986;2024-02-21T09:10:37;10.20;99.90
32612;DHT22;19030;49.478;8.986;2024-02-21T09:12:37;10.10;99.90
32612;DHT22;19030;49.478;8.986;2024-02-21T09:14:38;10.20;99.90
32612;DHT22;19030;49.478;8.986;2024-02-21T09:16:39;10.10;99.90
32612;DHT22;19030;49.478;8.986;2024-02-21T09:18:39;10.30;99.90
32612;DHT22;19030;49.478;8.986;2024-02-21T09:20:40;10.50;99.90
32612;DHT22;19030;49.478;8.986;2024-02-21T09:22:41;10.60;99.90
32612;DHT22;19030;49.478;8.986;2024-02-21T09:24:41;10.80;99.90
32612;DHT22;19030;49.478;8.986;2024-02-21T09:26:42;10.90;99.90
32612;DHT22;19030;49.478;8.986;2024-02-21T09:28:43;11.00;99.90
32612;DHT22;19030;49.478;8.986;2024-02-21T09:30:44;11.20;99.90
32612;DHT22;19030;49.478;8.986;2024-02-21T09:32:46;11.40;99.90
32612;DHT22;19030;49.478;8.986;2024-02-21T09:34:47;11.70;99.90
32612;DHT22;19030;49.478;8.986;2024-02-21T09:36:47;12.00;99.90
32612;DHT22;19030;49.478;8.986;2024-02-21T09:38:48;12.40;99.90
32612;DHT22;19030;49.478;8.986;2024-02-21T09:40:58;12.70;99.90
32612;DHT22;19030;49.478;8.986;2024-02-21T09:43:03;13.10;99.90
32612;DHT22;19030;49.478;8.986;2024-02-21T09:45:19;13.60;99.90
32612;DHT22;19030;49.478;8.986;2024-02-21T09:47:30;13.90;99.90
32612;DHT22;19030;49.478;8.986;2024-02-21T09:49:34;14.10;99.90
32612;DHT22;19030;49.478;8.986;2024-02-21T09:51:38;13.60;99.90
32612;DHT22;19030;49.478;8.986;2024-02-21T09:53:42;13.40;99.90
32612;DHT22;19030;49.478;8.986;2024-02-21T09:55:43;13.40;99.90
32612;DHT22;19030;49.478;8.986;2024-02-21T09:57:45;13.50;99.90
32612;DHT22;19030;49.478;8.986;2024-02-21T09:59:45;13.70;99.90
32612;DHT22;19030;49.478;8.986;2024-02-21T10:01:46;13.90;99.90
32612;DHT22;19030;49.478;8.986;2024-02-21T10:03:47;13.70;99.90
32612;DHT22;19030;49.478;8.986;2024-02-21T10:05:48;13.50;99.90
32612;DHT22;19030;49.478;8.986;2024-02-21T10:07:52;13.20;99.90
32612;DHT22;19030;49.478;8.986;2024-02-21T10:10:05;13.00;99.90
32612;DHT22;19030;49.478;8.986;2024-02-21T10:12:10;13.40;99.90
32612;DHT22;19030;49.478;8.986;2024-02-21T10:14:11;14.70;99.90
32612;DHT22;19030;49.478;8.986;2024-02-21T10:16:11;15.30;97.20
32612;DHT22;19030;49.478;8.986;2024-02-21T10:18:12;16.10;94.40
32612;DHT22;19030;49.478;8.986;2024-02-21T10:20:13;16.50;93.00
32612;DHT22;19030;49.478;8.986;2024-02-21T10:22:15;17.20;90.10
32612;DHT22;19030;49.478;8.986;2024-02-21T10:24:26;17.20;89.30
32612;DHT22;19030;49.478;8.986;2024-02-21T10:26:28;18.00;84.70
32612;DHT22;19030;49.478;8.986;2024-02-21T10:28:28;19.10;78.50
32612;DHT22;19030;49.478;8.986;2024-02-21T10:30:29;20.10;72.10
32612;DHT22;19030;49.478;8.986;2024-02-21T10:32:30;20.90;64.70
32612;DHT22;19030;49.478;8.986;2024-02-21T10:34:31;20.80;62.40
32612;DHT22;19030;49.478;8.986;2024-02-21T10:36:31;20.60;60.10
32612;DHT22;19030;49.478;8.986;2024-02-21T10:38:32;20.30;60.70
32612;DHT22;19030;49.478;8.986;2024-02-21T10:40:34;20.00;62.00
32612;DHT22;19030;49.478;8.986;2024-02-21T10:42:36;20.20;59.90
32612;DHT22;19030;49.478;8.986;2024-02-21T10:44:38;19.90;61.50
32612;DHT22;19030;49.478;8.986;2024-02-21T10:46:43;19.20;61.40
32612;DHT22;19030;49.478;8.986;2024-02-21T10:48:45;18.20;65.30
32612;DHT22;19030;49.478;8.986;2024-02-21T10:51:03;17.80;67.10
32612;DHT22;19030;49.478;8.986;2024-02-21T10:53:35;17.40;67.80
32612;DHT22;19030;49.478;8.986;2024-02-21T10:55:48;17.00;69.60
32612;DHT22;19030;49.478;8.986;2024-02-21T10:57:50;16.90;72.10
32612;DHT22;19030;49.478;8.986;2024-02-21T10:59:51;17.40;69.90
32612;DHT22;19030;49.478;8.986;2024-02-21T11:01:53;17.70;68.60
32612;DHT22;19030;49.478;8.986;2024-02-21T11:03:55;17.40;69.00
32612;DHT22;19030;49.478;8.986;2024-02-21T11:05:56;17.40;69.20
32612;DHT22;19030;49.478;8.986;2024-02-21T11:07:57;17.20;69.70
32612;DHT22;19030;49.478;8.986;2024-02-21T11:09:58;17.20;69.80
32612;DHT22;19030;49.478;8.986;2024-02-21T11:12:03;17.30;69.80
32612;DHT22;19030;49.478;8.986;2024-02-21T11:16:10;17.60;70.60
32612;DHT22;19030;49.478;8.986;2024-02-21T11:18:11;17.20;67.50
32612;DHT22;19030;49.478;8.986;2024-02-21T11:20:14;16.60;70.20
32612;DHT22;19030;49.478;8.986;2024-02-21T11:22:19;16.40;72.00
32612;DHT22;19030;49.478;8.986;2024-02-21T11:24:32;16.30;72.30
32612;DHT22;19030;49.478;8.986;2024-02-21T11:26:33;16.30;72.10
32612;DHT22;19030;49.478;8.986;2024-02-21T11:28:34;16.10;72.90
32612;DHT22;19030;49.478;8.986;2024-02-21T11:30:36;16.10;73.40
32612;DHT22;19030;49.478;8.986;2024-02-21T11:32:36;15.70;74.40
32612;DHT22;19030;49.478;8.986;2024-02-21T11:34:37;15.50;75.00
32612;DHT22;19030;49.478;8.986;2024-02-21T11:36:50;15.50;75.00
32612;DHT22;19030;49.478;8.986;2024-02-21T11:38:52;15.60;74.70
32612;DHT22;19030;49.478;8.986;2024-02-21T11:40:56;15.50;74.90
32612;DHT22;19030;49.478;8.986;2024-02-21T11:42:59;15.20;75.00
32612;DHT22;19030;49.478;8.986;2024-02-21T11:45:00;15.10;75.80
32612;DHT22;19030;49.478;8.986;2024-02-21T11:47:01;15.00;76.60
32612;DHT22;19030;49.478;8.986;2024-02-21T11:49:01;14.90;76.80
32612;DHT22;19030;49.478;8.986;2024-02-21T11:51:04;14.60;78.20
32612;DHT22;19030;49.478;8.986;2024-02-21T11:53:06;14.00;80.10
32612;DHT22;19030;49.478;8.986;2024-02-21T11:55:06;13.40;82.80
32612;DHT22;19030;49.478;8.986;2024-02-21T11:57:08;13.30;84.80
32612;DHT22;19030;49.478;8.986;2024-02-21T11:59:09;13.20;85.90
32612;DHT22;19030;49.478;8.986;2024-02-21T12:01:09;13.20;87.20
32612;DHT22;19030;49.478;8.986;2024-02-21T12:03:10;13.10;86.50
32612;DHT22;19030;49.478;8.986;2024-02-21T12:05:11;12.80;86.90
32612;DHT22;19030;49.478;8.986;2024-02-21T12:07:12;12.70;88.80
32612;DHT22;19030;49.478;8.986;2024-02-21T12:09:15;12.60;89.60
32612;DHT22;19030;49.478;8.986;2024-02-21T12:11:18;12.60;90.00
32612;DHT22;19030;49.478;8.986;2024-02-21T12:13:22;12.50;89.70
32612;DHT22;19030;49.478;8.986;2024-02-21T12:15:23;12.70;90.40
32612;DHT22;19030;49.478;8.986;2024-02-21T12:17:24;12.80;90.30
32612;DHT22;19030;49.478;8.986;2024-02-21T12:19:24;13.00;89.60
32612;DHT22;19030;49.478;8.986;2024-02-21T12:21:34;13.00;89.30
32612;DHT22;19030;49.478;8.986;2024-02-21T12:23:38;13.10;89.00
32612;DHT22;19030;49.478;8.986;2024-02-21T12:25:39;13.20;89.10
32612;DHT22;19030;49.478;8.986;2024-02-21T12:27:40;13.20;88.30
32612;DHT22;19030;49.478;8.986;2024-02-21T12:29:41;13.20;87.30
32612;DHT22;19030;49.478;8.986;2024-02-21T12:31:41;13.20;88.30
32612;DHT22;19030;49.478;8.986;2024-02-21T12:33:43;13.20;87.80
32612;DHT22;19030;49.478;8.986;2024-02-21T12:35:43;13.00;88.50
32612;DHT22;19030;49.478;8.986;2024-02-21T12:37:44;13.10;88.40
32612;DHT22;19030;49.478;8.986;2024-02-21T12:39:45;13.20;87.70
32612;DHT22;19030;49.478;8.986;2024-02-21T12:41:45;13.30;87.80
32612;DHT22;19030;49.478;8.986;2024-02-21T12:43:46;13.40;86.50
32612;DHT22;19030;49.478;8.986;2024-02-21T12:45:47;13.70;86.30
32612;DHT22;19030;49.478;8.986;2024-02-21T12:47:48;13.80;85.20
32612;DHT22;19030;49.478;8.986;2024-02-21T12:49:49;14.00;84.40
32612;DHT22;19030;49.478;8.986;2024-02-21T12:51:50;13.80;83.50
32612;DHT22;19030;49.478;8.986;2024-02-21T12:53:51;14.10;83.90
32612;DHT22;19030;49.478;8.986;2024-02-21T12:55:51;14.20;82.00
32612;DHT22;19030;49.478;8.986;2024-02-21T12:57:52;14.20;81.70